createdAt,value
2018-10-19T00:00:33.223Z,43.80
2018-10-19T00:01:33.212Z,40.40
2018-10-19T00:02:33.204Z,40.90
2018-10-19T00:03:33.206Z,38.30
2018-10-19T00:04:33.178Z,42.90
2018-10-19T00:05:33.166Z,42.30
2018-10-19T00:06:33.161Z,40.00
2018-10-19T00:07:33.153Z,40.00
2018-10-19T00:08:33.133Z,38.90
2018-10-19T00:09:33.136Z,36.60
2018-10-19T00:10:33.113Z,38.10
2018-10-19T00:11:33.100Z,35.80
2018-10-19T00:12:33.112Z,34.20
2018-10-19T00:13:33.078Z,35.50
2018-10-19T00:14:33.068Z,36.40
2018-10-19T00:15:33.066Z,35.00
2018-10-19T00:16:33.044Z,35.00
2018-10-19T00:17:33.033Z,33.10
2018-10-19T00:18:33.027Z,32.40
2018-10-19T00:19:33.013Z,32.60
2018-10-19T00:20:33.002Z,32.40
2018-10-19T00:21:33.002Z,32.60
2018-10-19T00:22:40.011Z,32.60
2018-10-19T00:23:32.970Z,32.50
2018-10-19T00:24:32.966Z,31.70
2018-10-19T00:25:32.945Z,32.10
2018-10-19T00:26:32.932Z,31.70
2018-10-19T00:27:32.933Z,31.30
2018-10-19T00:28:32.924Z,31.30
2018-10-19T00:29:32.898Z,30.90
2018-10-19T00:30:32.888Z,30.20
2018-10-19T00:31:32.878Z,34.50
2018-10-19T00:32:32.877Z,31.30
2018-10-19T00:33:32.872Z,32.70
2018-10-19T00:34:32.862Z,30.70
2018-10-19T00:35:32.840Z,32.50
2018-10-19T00:36:32.841Z,32.80
2018-10-19T00:37:32.812Z,33.80
2018-10-19T00:38:32.799Z,32.20
2018-10-19T00:39:32.800Z,31.90
2018-10-19T00:40:32.778Z,31.80
2018-10-19T00:41:32.778Z,32.30
2018-10-19T00:42:32.755Z,30.50
2018-10-19T00:43:32.781Z,32.20
2018-10-19T00:44:40.136Z,31.60
2018-10-19T00:45:32.725Z,32.30
2018-10-19T00:46:32.715Z,32.80
2018-10-19T00:47:32.702Z,32.50
2018-10-19T00:48:32.700Z,32.30
2018-10-19T00:49:32.681Z,37.00
2018-10-19T00:50:32.681Z,35.40
2018-10-19T00:51:32.667Z,39.70
2018-10-19T00:52:32.657Z,45.00
2018-10-19T00:53:32.652Z,42.40
2018-10-19T00:54:32.627Z,44.20
2018-10-19T00:55:32.621Z,42.90
2018-10-19T00:56:32.616Z,46.40
2018-10-19T00:57:32.593Z,43.90
2018-10-19T00:58:32.578Z,39.20
2018-10-19T00:59:32.580Z,38.60
2018-10-19T01:00:32.563Z,37.80
2018-10-19T01:01:32.560Z,39.20
2018-10-19T01:02:32.539Z,41.40
2018-10-19T01:03:32.568Z,43.70
2018-10-19T01:04:32.520Z,44.20
2018-10-19T01:05:32.539Z,44.50
2018-10-19T01:06:32.487Z,39.00
2018-10-19T01:07:32.490Z,40.40
2018-10-19T01:08:32.469Z,41.60
2018-10-19T01:09:32.461Z,44.60
2018-10-19T01:10:32.452Z,45.00
2018-10-19T01:11:32.437Z,42.50
2018-10-19T01:12:32.430Z,43.00
2018-10-19T01:13:32.409Z,46.70
2018-10-19T01:14:32.408Z,50.60
2018-10-19T01:15:32.399Z,48.30
2018-10-19T01:16:32.400Z,50.20
2018-10-19T01:17:32.368Z,49.50
2018-10-19T01:18:32.362Z,46.50
2018-10-19T01:19:32.346Z,45.50
2018-10-19T01:20:32.341Z,44.80
2018-10-19T01:21:32.333Z,44.60
2018-10-19T01:22:32.321Z,46.10
2018-10-19T01:23:32.306Z,46.10
2018-10-19T01:24:32.285Z,43.70
2018-10-19T01:25:32.279Z,43.50
2018-10-19T01:26:39.308Z,44.00
2018-10-19T01:27:32.288Z,41.90
2018-10-19T01:28:32.249Z,43.90
2018-10-19T01:29:32.235Z,43.90
2018-10-19T01:30:32.242Z,41.70
2018-10-19T01:31:32.225Z,36.80
2018-10-19T01:32:32.196Z,39.20
2018-10-19T01:33:32.190Z,36.70
2018-10-19T01:34:32.182Z,38.20
2018-10-19T01:35:32.163Z,37.80
2018-10-19T01:36:32.152Z,38.30
2018-10-19T01:37:32.143Z,36.90
2018-10-19T01:38:32.134Z,37.00
2018-10-19T01:39:32.124Z,37.20
2018-10-19T01:40:32.125Z,38.30
2018-10-19T01:41:32.097Z,38.30
2018-10-19T01:42:32.084Z,39.20
2018-10-19T01:43:32.087Z,39.20
2018-10-19T01:44:32.068Z,36.60
2018-10-19T01:45:32.051Z,36.70
2018-10-19T01:46:32.051Z,39.20
2018-10-19T01:47:32.046Z,37.70
2018-10-19T01:48:32.018Z,36.60
2018-10-19T01:49:32.013Z,41.30
2018-10-19T01:50:31.995Z,43.10
2018-10-19T01:51:31.987Z,40.30
2018-10-19T01:52:31.973Z,41.20
2018-10-19T01:53:31.975Z,43.40
2018-10-19T01:54:31.957Z,43.90
2018-10-19T01:55:31.939Z,41.50
2018-10-19T01:56:31.929Z,42.90
2018-10-19T01:57:31.922Z,42.20
2018-10-19T01:58:31.908Z,42.20
2018-10-19T01:59:31.924Z,40.40
2018-10-19T02:00:31.895Z,43.30
2018-10-19T02:01:31.875Z,39.80
2018-10-19T02:02:31.862Z,37.50
2018-10-19T02:03:31.853Z,38.70
2018-10-19T02:04:31.844Z,38.00
2018-10-19T02:05:31.833Z,42.70
2018-10-19T02:06:31.823Z,42.20
2018-10-19T02:07:31.821Z,42.50
2018-10-19T02:08:31.804Z,46.20
2018-10-19T02:09:31.784Z,47.20
2018-10-19T02:10:31.776Z,43.80
2018-10-19T02:11:31.764Z,45.10
2018-10-19T02:12:31.753Z,45.20
2018-10-19T02:13:31.741Z,44.90
2018-10-19T02:14:31.732Z,44.60
2018-10-19T02:15:31.752Z,46.30
2018-10-19T02:16:31.707Z,43.20
2018-10-19T02:17:31.697Z,42.70
2018-10-19T02:18:31.685Z,42.60
2018-10-19T02:19:31.679Z,43.30
2018-10-19T02:20:31.662Z,45.90
2018-10-19T02:21:31.673Z,44.50
2018-10-19T02:22:31.641Z,49.10
2018-10-19T02:23:31.630Z,52.80
2018-10-19T02:24:31.622Z,49.50
2018-10-19T02:25:31.609Z,50.40
2018-10-19T02:26:31.603Z,49.90
2018-10-19T02:27:31.593Z,46.30
2018-10-19T02:28:31.581Z,47.70
2018-10-19T02:29:31.567Z,52.00
2018-10-19T02:30:31.553Z,51.90
2018-10-19T02:31:31.558Z,49.20
2018-10-19T02:32:31.531Z,58.60
2018-10-19T02:33:31.519Z,50.60
2018-10-19T02:34:31.513Z,49.00
2018-10-19T02:35:31.529Z,48.10
2018-10-19T02:36:31.487Z,50.20
2018-10-19T02:37:31.478Z,43.90
2018-10-19T02:38:31.463Z,43.00
2018-10-19T02:39:31.452Z,40.60
2018-10-19T02:40:31.441Z,40.70
2018-10-19T02:41:31.450Z,39.10
2018-10-19T02:42:31.428Z,38.10
2018-10-19T02:43:31.410Z,39.60
2018-10-19T02:44:31.398Z,37.50
2018-10-19T02:45:31.385Z,40.90
2018-10-19T02:46:31.374Z,37.90
2018-10-19T02:47:31.392Z,39.40
2018-10-19T02:48:31.365Z,37.30
2018-10-19T02:49:31.343Z,40.70
2018-10-19T02:50:31.329Z,42.60
2018-10-19T02:51:31.324Z,42.60
2018-10-19T02:52:31.309Z,41.20
2018-10-19T02:53:31.311Z,45.50
2018-10-19T02:54:31.287Z,45.70
2018-10-19T02:55:31.278Z,43.70
2018-10-19T02:56:31.262Z,47.10
2018-10-19T02:57:31.253Z,44.10
2018-10-19T02:58:31.244Z,40.90
2018-10-19T02:59:31.233Z,43.60
2018-10-19T03:00:31.218Z,42.00
2018-10-19T03:01:31.208Z,48.70
2018-10-19T03:02:31.199Z,46.70
2018-10-19T03:03:31.233Z,43.50
2018-10-19T03:04:31.173Z,49.60
2018-10-19T03:05:31.163Z,43.00
2018-10-19T03:06:31.166Z,45.20
2018-10-19T03:07:31.140Z,44.90
2018-10-19T03:08:31.132Z,44.00
2018-10-19T03:09:31.126Z,44.30
2018-10-19T03:10:31.107Z,46.10
2018-10-19T03:11:31.178Z,42.90
2018-10-19T03:12:31.090Z,40.70
2018-10-19T03:13:31.074Z,41.80
2018-10-19T03:14:31.088Z,39.40
2018-10-19T03:15:31.058Z,37.40
2018-10-19T03:16:31.040Z,38.10
2018-10-19T03:17:31.062Z,43.80
2018-10-19T03:18:31.021Z,46.20
2018-10-19T03:19:31.024Z,40.30
2018-10-19T03:20:30.996Z,39.40
2018-10-19T03:21:30.986Z,39.70
2018-10-19T03:22:30.977Z,43.50
2018-10-19T03:23:31.011Z,40.80
2018-10-19T03:24:30.951Z,40.20
2018-10-19T03:25:30.947Z,39.00
2018-10-19T03:26:30.936Z,39.90
2018-10-19T03:27:30.924Z,39.80
2018-10-19T03:28:30.910Z,39.50
2018-10-19T03:29:30.926Z,39.90
2018-10-19T03:30:30.887Z,42.80
2018-10-19T03:31:30.873Z,42.80
2018-10-19T03:32:30.861Z,47.10
2018-10-19T03:33:30.849Z,53.00
2018-10-19T03:34:30.839Z,47.10
2018-10-19T03:35:30.885Z,52.40
2018-10-19T03:36:30.817Z,46.00
2018-10-19T03:37:30.809Z,46.50
2018-10-19T03:38:30.798Z,47.70
2018-10-19T03:39:30.830Z,47.00
2018-10-19T03:40:30.793Z,43.70
2018-10-19T03:41:30.800Z,53.60
2018-10-19T03:42:30.752Z,63.10
2018-10-19T03:43:30.739Z,52.00
2018-10-19T03:44:30.729Z,49.40
2018-10-19T03:45:30.725Z,46.70
2018-10-19T03:46:30.710Z,50.00
2018-10-19T03:47:30.716Z,47.30
2018-10-19T03:48:30.684Z,50.70
2018-10-19T03:49:30.674Z,47.80
2018-10-19T03:50:30.662Z,45.40
2018-10-19T03:51:30.654Z,48.10
2018-10-19T03:52:30.640Z,43.00
2018-10-19T03:53:30.664Z,43.10
2018-10-19T03:54:30.618Z,44.10
2018-10-19T03:55:30.605Z,46.90
2018-10-19T03:56:30.614Z,46.50
2018-10-19T03:57:30.584Z,44.30
2018-10-19T03:58:30.575Z,43.60
2018-10-19T03:59:30.578Z,46.80
2018-10-19T04:00:30.552Z,46.10
2018-10-19T04:01:30.540Z,42.80
2018-10-19T04:02:30.538Z,46.20
2018-10-19T04:03:30.574Z,65.70
2018-10-19T04:04:30.507Z,65.10
2018-10-19T04:05:30.531Z,62.60
2018-10-19T04:06:30.487Z,88.70
2018-10-19T04:07:30.479Z,105.30
2018-10-19T04:08:30.463Z,71.70
2018-10-19T04:09:30.454Z,67.80
2018-10-19T04:10:30.440Z,56.80
2018-10-19T04:11:30.480Z,59.40
2018-10-19T04:12:30.448Z,56.60
2018-10-19T04:13:30.445Z,57.30
2018-10-19T04:14:30.395Z,55.90
2018-10-19T04:15:30.385Z,55.20
2018-10-19T04:16:30.381Z,51.80
2018-10-19T04:17:30.375Z,54.20
2018-10-19T04:18:30.356Z,62.60
2018-10-19T04:19:30.344Z,61.10
2018-10-19T04:20:30.328Z,56.10
2018-10-19T04:21:30.318Z,59.10
2018-10-19T04:22:30.310Z,60.20
2018-10-19T04:23:30.319Z,56.90
2018-10-19T04:24:30.288Z,76.70
2018-10-19T04:25:30.276Z,78.00
2018-10-19T04:26:30.266Z,62.00
2018-10-19T04:27:30.363Z,62.60
2018-10-19T04:28:30.258Z,60.10
2018-10-19T04:29:30.243Z,61.60
2018-10-19T04:30:30.218Z,64.60
2018-10-19T04:31:30.207Z,73.90
2018-10-19T04:32:30.213Z,71.80
2018-10-19T04:33:30.200Z,66.40
2018-10-19T04:34:30.182Z,69.40
2018-10-19T04:35:30.207Z,67.30
2018-10-19T04:36:30.154Z,67.50
2018-10-19T04:37:30.142Z,117.20
2018-10-19T04:38:30.134Z,124.30
2018-10-19T04:39:30.126Z,86.20
2018-10-19T04:40:30.107Z,101.50
2018-10-19T04:41:30.173Z,168.80
2018-10-19T04:42:30.085Z,231.90
2018-10-19T04:43:30.075Z,248.70
2018-10-19T04:44:30.071Z,306.20
2018-10-19T04:45:30.052Z,146.30
2018-10-19T04:46:30.043Z,119.50
2018-10-19T04:47:30.101Z,93.60
2018-10-19T04:48:30.032Z,166.50
2018-10-19T04:49:30.026Z,156.80
2018-10-19T04:50:29.999Z,266.20
2018-10-19T04:51:29.987Z,257.20
2018-10-19T04:52:29.981Z,176.30
2018-10-19T04:53:30.015Z,209.90
2018-10-19T04:54:29.960Z,129.80
2018-10-19T04:55:29.948Z,132.30
2018-10-19T04:56:29.936Z,143.00
2018-10-19T04:57:29.921Z,139.30
2018-10-19T04:58:29.908Z,117.80
2018-10-19T04:59:29.932Z,101.40
2018-10-19T05:00:29.890Z,126.10
2018-10-19T05:01:29.874Z,145.00
2018-10-19T05:02:29.917Z,120.10
2018-10-19T05:03:29.852Z,84.50
2018-10-19T05:04:29.862Z,79.10
2018-10-19T05:05:29.932Z,94.30
2018-10-19T05:06:29.866Z,77.80
2018-10-19T05:07:29.837Z,82.60
2018-10-19T05:08:29.841Z,102.80
2018-10-19T05:09:29.819Z,89.00
2018-10-19T05:10:29.795Z,93.20
2018-10-19T05:11:29.778Z,70.10
2018-10-19T05:12:29.851Z,80.50
2018-10-19T05:13:30.689Z,77.50
2018-10-19T05:14:29.772Z,84.90
2018-10-19T05:15:29.720Z,80.50
2018-10-19T05:16:29.753Z,66.60
2018-10-19T05:17:29.720Z,74.20
2018-10-19T05:18:29.715Z,72.10
2018-10-19T05:19:29.695Z,71.50
2018-10-19T05:20:29.726Z,67.20
2018-10-19T05:21:29.691Z,82.00
2018-10-19T05:22:29.642Z,87.50
2018-10-19T05:23:29.633Z,96.50
2018-10-19T05:24:29.671Z,73.00
2018-10-19T05:25:29.611Z,74.60
2018-10-19T05:26:29.597Z,84.60
2018-10-19T05:27:29.597Z,81.90
2018-10-19T05:28:29.574Z,90.20
2018-10-19T05:29:29.568Z,78.10
2018-10-19T05:30:29.551Z,83.50
2018-10-19T05:31:29.541Z,93.70
2018-10-19T05:32:29.545Z,99.20
2018-10-19T05:33:29.521Z,88.70
2018-10-19T05:34:29.508Z,79.40
2018-10-19T05:35:29.496Z,79.50
2018-10-19T05:36:29.486Z,75.40
2018-10-19T05:37:29.504Z,75.90
2018-10-19T05:38:37.040Z,76.50
2018-10-19T05:39:29.455Z,74.10
2018-10-19T05:40:29.443Z,71.90
2018-10-19T05:41:29.431Z,76.50
2018-10-19T05:42:29.422Z,66.60
2018-10-19T05:43:29.492Z,63.80
2018-10-19T05:44:29.406Z,62.20
2018-10-19T05:45:29.393Z,59.10
2018-10-19T05:46:29.383Z,55.80
2018-10-19T05:47:29.371Z,54.90
2018-10-19T05:48:29.373Z,56.00
2018-10-19T05:49:29.348Z,56.10
2018-10-19T05:50:29.337Z,53.70
2018-10-19T05:51:29.321Z,54.40
2018-10-19T05:52:29.324Z,60.90
2018-10-19T05:53:29.339Z,64.20
2018-10-19T05:54:29.294Z,68.50
2018-10-19T05:55:29.275Z,61.10
2018-10-19T05:56:29.281Z,59.30
2018-10-19T05:57:29.260Z,59.70
2018-10-19T05:58:29.251Z,57.50
2018-10-19T05:59:29.243Z,56.70
2018-10-19T06:00:29.240Z,55.30
2018-10-19T06:01:29.247Z,57.50
2018-10-19T06:02:29.398Z,54.50
2018-10-19T06:03:29.227Z,53.80
2018-10-19T06:04:29.211Z,53.70
2018-10-19T06:05:29.176Z,59.00
2018-10-19T06:06:29.161Z,56.90
2018-10-19T06:07:29.158Z,57.70
2018-10-19T06:08:29.144Z,62.00
2018-10-19T06:09:29.138Z,67.10
2018-10-19T06:10:29.110Z,63.40
2018-10-19T06:11:29.103Z,58.30
2018-10-19T06:12:29.095Z,62.70
2018-10-19T06:13:29.118Z,62.20
2018-10-19T06:14:29.087Z,69.90
2018-10-19T06:15:29.063Z,78.40
2018-10-19T06:16:29.067Z,88.90
2018-10-19T06:17:29.050Z,111.00
2018-10-19T06:18:29.034Z,93.00
2018-10-19T06:19:29.013Z,95.30
2018-10-19T06:20:29.012Z,117.70
2018-10-19T06:21:28.997Z,107.50
2018-10-19T06:22:28.978Z,124.50
2018-10-19T06:23:28.970Z,111.60
2018-10-19T06:24:28.980Z,98.90
2018-10-19T06:25:28.942Z,95.90
2018-10-19T06:26:28.993Z,118.20
2018-10-19T06:27:28.921Z,113.50
2018-10-19T06:28:28.918Z,163.20
2018-10-19T06:29:28.909Z,191.00
2018-10-19T06:30:28.888Z,195.60
2018-10-19T06:31:28.875Z,179.80
2018-10-19T06:32:28.874Z,168.80
2018-10-19T06:33:28.891Z,158.90
2018-10-19T06:34:28.851Z,171.40
2018-10-19T06:35:28.836Z,113.30
2018-10-19T06:36:28.818Z,148.00
2018-10-19T06:37:28.816Z,151.10
2018-10-19T06:38:28.808Z,157.80
2018-10-19T06:39:28.803Z,155.80
2018-10-19T06:40:28.779Z,163.40
2018-10-19T06:41:28.768Z,117.00
2018-10-19T06:42:28.754Z,121.10
2018-10-19T06:43:28.756Z,88.20
2018-10-19T06:44:28.736Z,95.40
2018-10-19T06:45:28.736Z,82.20
2018-10-19T06:46:28.727Z,73.30
2018-10-19T06:47:28.733Z,74.20
2018-10-19T06:48:28.688Z,79.10
2018-10-19T06:49:28.697Z,76.30
2018-10-19T06:50:28.678Z,76.20
2018-10-19T06:51:28.651Z,77.40
2018-10-19T06:52:28.643Z,79.90
2018-10-19T06:53:28.634Z,76.50
2018-10-19T06:54:37.189Z,75.80
2018-10-19T06:55:35.655Z,77.10
2018-10-19T06:56:36.698Z,81.50
2018-10-19T06:57:28.592Z,77.60
2018-10-19T06:58:28.578Z,80.90
2018-10-19T06:59:28.644Z,81.30
2018-10-19T07:00:28.577Z,79.70
2018-10-19T07:01:28.558Z,72.60
2018-10-19T07:02:28.533Z,83.30
2018-10-19T07:03:28.524Z,76.40
2018-10-19T07:04:28.513Z,84.60
2018-10-19T07:05:28.544Z,91.40
2018-10-19T07:06:28.523Z,85.60
2018-10-19T07:07:28.492Z,90.20
2018-10-19T07:08:28.591Z,132.00
2018-10-19T07:09:28.461Z,187.00
2018-10-19T07:10:28.460Z,193.30
2018-10-19T07:11:28.437Z,166.60
2018-10-19T07:12:28.436Z,146.60
2018-10-19T07:13:28.464Z,147.40
2018-10-19T07:14:28.402Z,155.90
2018-10-19T07:15:28.385Z,137.50
2018-10-19T07:16:28.404Z,164.90
2018-10-19T07:17:28.398Z,144.90
2018-10-19T07:18:28.351Z,136.00
2018-10-19T07:19:28.353Z,194.50
2018-10-19T07:20:28.338Z,165.40
2018-10-19T07:21:28.367Z,122.50
2018-10-19T07:22:28.361Z,144.90
2018-10-19T07:23:28.333Z,153.50
2018-10-19T07:24:28.389Z,125.70
2018-10-19T07:25:28.307Z,113.80
2018-10-19T07:26:28.274Z,107.40
2018-10-19T07:27:28.263Z,188.60
2018-10-19T07:28:28.286Z,254.30
2018-10-19T07:29:28.284Z,213.60
2018-10-19T07:30:28.229Z,163.00
2018-10-19T07:31:28.291Z,244.10
2018-10-19T07:32:28.219Z,191.50
2018-10-19T07:33:28.220Z,155.00
2018-10-19T07:34:28.210Z,143.20
2018-10-19T07:35:28.185Z,118.60
2018-10-19T07:36:28.357Z,177.10
2018-10-19T07:37:28.153Z,160.10
2018-10-19T07:38:28.147Z,145.50
2018-10-19T07:39:28.128Z,146.00
2018-10-19T07:40:35.467Z,147.20
2018-10-19T07:41:28.122Z,181.80
2018-10-19T07:42:28.151Z,157.60
2018-10-19T07:43:28.079Z,122.40
2018-10-19T07:44:28.064Z,149.00
2018-10-19T07:45:28.052Z,127.30
2018-10-19T07:46:28.042Z,133.40
2018-10-19T07:47:28.158Z,204.70
2018-10-19T07:48:28.076Z,281.00
2018-10-19T07:49:28.028Z,172.20
2018-10-19T07:50:27.997Z,264.00
2018-10-19T07:51:27.985Z,282.60
2018-10-19T07:52:27.973Z,175.50
2018-10-19T07:53:27.966Z,189.40
2018-10-19T07:54:28.033Z,153.50
2018-10-19T07:55:27.944Z,139.60
2018-10-19T07:56:27.937Z,183.90
2018-10-19T07:57:27.920Z,164.00
2018-10-19T07:58:27.910Z,147.50
2018-10-19T07:59:27.912Z,147.10
2018-10-19T08:00:27.923Z,153.80
2018-10-19T08:01:27.875Z,152.70
2018-10-19T08:02:27.861Z,184.20
2018-10-19T08:03:27.865Z,188.70
2018-10-19T08:04:27.845Z,156.90
2018-10-19T08:05:27.856Z,155.70
2018-10-19T08:06:27.818Z,153.80
2018-10-19T08:07:27.816Z,158.90
2018-10-19T08:08:27.800Z,153.70
2018-10-19T08:09:27.798Z,140.20
2018-10-19T08:10:27.812Z,152.20
2018-10-19T08:11:27.794Z,149.20
2018-10-19T08:12:27.757Z,149.50
2018-10-19T08:13:27.741Z,139.30
2018-10-19T08:14:27.732Z,145.30
2018-10-19T08:15:27.743Z,143.10
2018-10-19T08:16:27.727Z,147.30
2018-10-19T08:17:27.701Z,141.80
2018-10-19T08:18:27.694Z,135.70
2018-10-19T08:19:27.676Z,133.50
2018-10-19T08:20:34.752Z,129.50
2018-10-19T08:21:27.674Z,123.70
2018-10-19T08:22:27.640Z,119.60
2018-10-19T08:23:27.628Z,118.80
2018-10-19T08:24:27.619Z,110.00
2018-10-19T08:25:27.609Z,109.80
2018-10-19T08:26:27.640Z,111.20
2018-10-19T08:27:27.615Z,106.20
2018-10-19T08:28:27.606Z,107.90
2018-10-19T08:29:27.564Z,114.40
2018-10-19T08:30:27.551Z,110.20
2018-10-19T08:31:27.543Z,109.20
2018-10-19T08:32:27.543Z,103.60
2018-10-19T08:33:27.519Z,103.40
2018-10-19T08:34:27.511Z,104.10
2018-10-19T08:35:27.498Z,108.60
2018-10-19T08:36:27.544Z,100.10
2018-10-19T08:37:27.551Z,102.90
2018-10-19T08:38:34.584Z,105.10
2018-10-19T08:39:27.495Z,106.90
2018-10-19T08:40:27.489Z,102.10
2018-10-19T08:41:27.528Z,103.20
2018-10-19T08:42:27.439Z,106.70
2018-10-19T08:43:27.408Z,98.90
2018-10-19T08:44:27.394Z,107.20
2018-10-19T08:45:27.389Z,102.50
2018-10-19T08:46:27.377Z,101.60
2018-10-19T08:47:27.386Z,101.20
2018-10-19T08:48:27.354Z,100.30
2018-10-19T08:49:27.338Z,102.30
2018-10-19T08:50:27.327Z,100.20
2018-10-19T08:51:27.455Z,100.90
2018-10-19T08:52:34.342Z,105.20
2018-10-19T08:53:27.333Z,102.20
2018-10-19T08:54:27.288Z,104.60
2018-10-19T08:55:27.315Z,104.70
2018-10-19T08:56:27.259Z,98.30
2018-10-19T08:57:27.249Z,102.60
2018-10-19T08:58:27.447Z,104.10
2018-10-19T08:59:27.263Z,105.70
2018-10-19T09:00:34.260Z,100.20
2018-10-19T09:01:27.209Z,103.20
2018-10-19T09:02:34.483Z,103.80
2018-10-19T09:03:27.236Z,106.00
2018-10-19T09:04:27.185Z,109.70
2018-10-19T09:05:27.172Z,103.00
2018-10-19T09:06:27.150Z,104.90
2018-10-19T09:07:27.143Z,107.90
2018-10-19T09:08:27.129Z,108.50
2018-10-19T09:09:27.121Z,106.00
2018-10-19T09:10:27.129Z,103.50
2018-10-19T09:11:27.154Z,104.60
2018-10-19T09:12:27.152Z,100.70
2018-10-19T09:13:27.091Z,107.40
2018-10-19T09:14:35.031Z,107.90
2018-10-19T09:15:27.997Z,102.40
2018-10-19T09:16:27.034Z,99.20
2018-10-19T09:17:27.026Z,98.40
2018-10-19T09:18:27.058Z,100.30
2018-10-19T09:19:27.007Z,99.10
2018-10-19T09:20:26.992Z,100.30
2018-10-19T09:21:27.049Z,100.60
2018-10-19T09:22:26.967Z,96.10
2018-10-19T09:23:27.013Z,95.10
2018-10-19T09:24:26.960Z,98.40
2018-10-19T09:25:27.030Z,101.10
2018-10-19T09:26:26.922Z,100.90
2018-10-19T09:27:26.920Z,98.50
2018-10-19T09:28:26.900Z,99.20
2018-10-19T09:29:26.921Z,99.40
2018-10-19T09:30:34.094Z,99.50
2018-10-19T09:31:26.871Z,99.10
2018-10-19T09:32:26.859Z,100.20
2018-10-19T09:33:26.848Z,97.40
2018-10-19T09:34:26.837Z,96.40
2018-10-19T09:35:26.866Z,96.40
2018-10-19T09:36:27.028Z,97.70
2018-10-19T09:37:26.801Z,96.10
2018-10-19T09:38:26.833Z,100.10
2018-10-19T09:39:26.777Z,94.40
2018-10-19T09:40:26.766Z,95.10
2018-10-19T09:41:26.880Z,95.50
2018-10-19T09:42:26.743Z,97.20
2018-10-19T09:43:26.751Z,99.10
2018-10-19T09:44:26.724Z,93.60
2018-10-19T09:45:26.708Z,96.80
2018-10-19T09:46:26.699Z,91.00
2018-10-19T09:47:33.772Z,94.80
2018-10-19T09:48:26.674Z,96.30
2018-10-19T09:49:26.698Z,95.10
2018-10-19T09:50:26.733Z,93.20
2018-10-19T09:51:33.694Z,93.80
2018-10-19T09:52:26.631Z,90.30
2018-10-19T09:53:26.627Z,90.70
2018-10-19T09:54:26.615Z,94.80
2018-10-19T09:55:26.626Z,95.00
2018-10-19T09:56:26.592Z,92.50
2018-10-19T09:57:26.574Z,96.50
2018-10-19T09:58:26.564Z,90.30
2018-10-19T09:59:26.558Z,90.90
2018-10-19T10:00:26.549Z,97.60
2018-10-19T10:01:26.544Z,90.50
2018-10-19T10:02:26.531Z,91.20
2018-10-19T10:03:26.512Z,90.50
2018-10-19T10:04:26.497Z,93.40
2018-10-19T10:05:26.497Z,91.90
2018-10-19T10:06:26.485Z,89.30
2018-10-19T10:07:26.462Z,93.90
2018-10-19T10:08:26.465Z,90.20
2018-10-19T10:09:26.445Z,89.90
2018-10-19T10:10:26.428Z,87.60
2018-10-19T10:11:26.465Z,88.40
2018-10-19T10:12:26.408Z,92.30
2018-10-19T10:13:26.395Z,86.60
2018-10-19T10:14:26.398Z,85.60
2018-10-19T10:15:26.502Z,85.50
2018-10-19T10:16:26.363Z,86.30
2018-10-19T10:17:26.358Z,85.30
2018-10-19T10:18:26.344Z,85.50
2018-10-19T10:19:26.327Z,85.60
2018-10-19T10:20:26.322Z,83.50
2018-10-19T10:21:26.314Z,85.90
2018-10-19T10:22:26.314Z,85.10
2018-10-19T10:23:26.285Z,81.20
2018-10-19T10:24:26.273Z,84.20
2018-10-19T10:25:26.265Z,84.50
2018-10-19T10:26:26.250Z,83.90
2018-10-19T10:27:26.259Z,85.30
2018-10-19T10:28:26.226Z,84.40
2018-10-19T10:29:26.218Z,81.30
2018-10-19T10:30:26.207Z,83.50
2018-10-19T10:31:26.198Z,81.10
2018-10-19T10:32:26.276Z,81.50
2018-10-19T10:33:26.182Z,80.50
2018-10-19T10:34:26.165Z,81.10
2018-10-19T10:35:26.149Z,80.90
2018-10-19T10:36:26.139Z,81.00
2018-10-19T10:37:26.135Z,84.00
2018-10-19T10:38:26.128Z,82.70
2018-10-19T10:39:26.112Z,83.50
2018-10-19T10:40:26.093Z,80.90
2018-10-19T10:41:26.084Z,85.30
2018-10-19T10:42:26.084Z,80.10
2018-10-19T10:43:26.097Z,81.00
2018-10-19T10:44:34.398Z,80.60
2018-10-19T10:45:26.038Z,85.90
2018-10-19T10:46:26.043Z,84.00
2018-10-19T10:47:26.018Z,83.40
2018-10-19T10:48:26.029Z,89.30
2018-10-19T10:49:25.995Z,83.70
2018-10-19T10:50:26.040Z,81.90
2018-10-19T10:51:25.969Z,81.90
2018-10-19T10:52:25.961Z,81.30
2018-10-19T10:53:26.018Z,83.30
2018-10-19T10:54:25.940Z,82.20
2018-10-19T10:55:25.925Z,82.70
2018-10-19T10:56:25.915Z,82.00
2018-10-19T10:57:25.908Z,85.50
2018-10-19T10:58:25.913Z,82.00
2018-10-19T10:59:25.896Z,81.70
2018-10-19T11:00:25.868Z,82.80
2018-10-19T11:01:25.860Z,83.60
2018-10-19T11:02:25.849Z,82.20
2018-10-19T11:03:25.835Z,83.80
2018-10-19T11:04:25.844Z,81.50
2018-10-19T11:05:25.819Z,79.20
2018-10-19T11:06:25.805Z,80.40
2018-10-19T11:07:25.868Z,79.00
2018-10-19T11:08:25.783Z,78.20
2018-10-19T11:09:25.769Z,81.10
2018-10-19T11:10:25.763Z,78.70
2018-10-19T11:11:25.747Z,84.00
2018-10-19T11:12:25.739Z,81.00
2018-10-19T11:13:25.726Z,80.90
2018-10-19T11:14:25.743Z,81.30
2018-10-19T11:15:25.730Z,82.10
2018-10-19T11:16:25.696Z,76.10
2018-10-19T11:17:25.744Z,78.20
2018-10-19T11:18:25.686Z,78.90
2018-10-19T11:19:25.705Z,79.20
2018-10-19T11:20:25.645Z,77.10
2018-10-19T11:21:25.638Z,76.80
2018-10-19T11:22:25.708Z,78.10
2018-10-19T11:23:25.613Z,78.00
2018-10-19T11:24:25.605Z,78.40
2018-10-19T11:25:25.591Z,79.00
2018-10-19T11:26:25.586Z,76.90
2018-10-19T11:27:25.568Z,79.70
2018-10-19T11:28:25.585Z,77.50
2018-10-19T11:29:25.545Z,77.50
2018-10-19T11:30:25.572Z,77.50
2018-10-19T11:31:25.543Z,75.90
2018-10-19T11:32:25.514Z,76.30
2018-10-19T11:33:25.509Z,74.70
2018-10-19T11:34:25.568Z,74.00
2018-10-19T11:35:25.480Z,72.40
2018-10-19T11:36:25.532Z,74.70
2018-10-19T11:37:25.552Z,73.20
2018-10-19T11:38:25.463Z,72.10
2018-10-19T11:39:25.541Z,72.00
2018-10-19T11:40:25.446Z,71.20
2018-10-19T11:41:25.415Z,71.30
2018-10-19T11:42:25.403Z,70.90
2018-10-19T11:43:25.391Z,71.70
2018-10-19T11:44:25.386Z,72.50
2018-10-19T11:45:25.532Z,71.30
2018-10-19T11:46:25.356Z,73.80
2018-10-19T11:47:25.343Z,70.10
2018-10-19T11:48:25.559Z,71.90
2018-10-19T11:49:25.340Z,70.80
2018-10-19T11:50:25.321Z,69.10
2018-10-19T11:51:25.318Z,70.60
2018-10-19T11:52:25.288Z,70.30
2018-10-19T11:53:25.276Z,73.30
2018-10-19T11:54:25.269Z,70.10
2018-10-19T11:55:25.264Z,73.10
2018-10-19T11:56:25.310Z,76.40
2018-10-19T11:57:25.232Z,74.50
2018-10-19T11:58:25.286Z,74.40
2018-10-19T11:59:25.210Z,74.60
2018-10-19T12:00:25.212Z,75.40
2018-10-19T12:01:25.227Z,73.70
2018-10-19T12:02:25.178Z,73.40
2018-10-19T12:03:25.218Z,74.20
2018-10-19T12:04:25.154Z,73.70
2018-10-19T12:05:25.145Z,72.20
2018-10-19T12:06:25.138Z,73.50
2018-10-19T12:07:25.165Z,74.50
2018-10-19T12:08:25.135Z,75.10
2018-10-19T12:09:25.102Z,75.50
2018-10-19T12:10:25.089Z,72.90
2018-10-19T12:11:25.086Z,74.40
2018-10-19T12:12:25.071Z,73.50
2018-10-19T12:13:25.090Z,74.50
2018-10-19T12:14:25.043Z,71.50
2018-10-19T12:15:25.034Z,73.60
2018-10-19T12:16:25.478Z,74.10
2018-10-19T12:17:25.023Z,71.20
2018-10-19T12:18:25.000Z,70.80
2018-10-19T12:19:25.091Z,71.60
2018-10-19T12:20:25.009Z,69.10
2018-10-19T12:21:25.032Z,71.60
2018-10-19T12:22:25.000Z,73.00
2018-10-19T12:23:24.945Z,75.10
2018-10-19T12:24:24.957Z,72.10
2018-10-19T12:25:24.928Z,71.00
2018-10-19T12:26:24.910Z,75.00
2018-10-19T12:27:25.022Z,77.50
2018-10-19T12:28:24.889Z,75.00
2018-10-19T12:29:24.923Z,76.80
2018-10-19T12:30:24.863Z,77.40
2018-10-19T12:31:24.869Z,77.80
2018-10-19T12:32:24.905Z,76.50
2018-10-19T12:33:24.863Z,73.70
2018-10-19T12:34:24.838Z,74.50
2018-10-19T12:35:24.862Z,73.20
2018-10-19T12:36:24.807Z,73.10
2018-10-19T12:37:24.791Z,73.90
2018-10-19T12:38:24.781Z,75.60
2018-10-19T12:39:24.895Z,75.20
2018-10-19T12:40:24.756Z,74.70
2018-10-19T12:41:24.746Z,74.20
2018-10-19T12:42:24.790Z,74.00
2018-10-19T12:43:24.723Z,74.20
2018-10-19T12:44:24.708Z,74.30
2018-10-19T12:45:24.699Z,72.80
2018-10-19T12:46:24.685Z,70.70